sensor_id;sensor_type;location;lat;lon;timestamp;P1;durP1;ratioP1;P2;durP2;ratioP2
66927;SDS011;59882;45.624;11.698;2023-04-25T00:02:02;5.90;;;3.60;;
66927;SDS011;59882;45.624;11.698;2023-04-25T00:04:28;6.50;;;3.40;;
66927;SDS011;59882;45.624;11.698;2023-04-25T00:06:54;6.65;;;3.53;;
66927;SDS011;59882;45.624;11.698;2023-04-25T00:09:20;7.97;;;3.80;;
66927;SDS011;59882;45.624;11.698;2023-04-25T00:11:47;8.05;;;3.53;;
66927;SDS011;59882;45.624;11.698;2023-04-25T00:14:13;7.72;;;3.30;;
66927;SDS011;59882;45.624;11.698;2023-04-25T00:16:39;6.82;;;3.83;;
66927;SDS011;59882;45.624;11.698;2023-04-25T00:19:06;7.55;;;3.70;;
66927;SDS011;59882;45.624;11.698;2023-04-25T00:21:32;5.53;;;3.67;;
66927;SDS011;59882;45.624;11.698;2023-04-25T00:23:58;7.40;;;3.97;;
66927;SDS011;59882;45.624;11.698;2023-04-25T00:26:24;6.75;;;3.85;;
66927;SDS011;59882;45.624;11.698;2023-04-25T00:28:50;8.13;;;3.60;;
66927;SDS011;59882;45.624;11.698;2023-04-25T00:31:16;8.70;;;3.57;;
66927;SDS011;59882;45.624;11.698;2023-04-25T00:33:42;6.30;;;3.23;;
66927;SDS011;59882;45.624;11.698;2023-04-25T00:36:08;12.73;;;3.78;;
66927;SDS011;59882;45.624;11.698;2023-04-25T00:38:34;6.60;;;4.20;;
66927;SDS011;59882;45.624;11.698;2023-04-25T00:41:00;6.93;;;3.80;;
66927;SDS011;59882;45.624;11.698;2023-04-25T00:43:26;6.40;;;3.75;;
66927;SDS011;59882;45.624;11.698;2023-04-25T00:45:52;6.18;;;3.80;;
66927;SDS011;59882;45.624;11.698;2023-04-25T00:48:18;5.57;;;3.00;;
66927;SDS011;59882;45.624;11.698;2023-04-25T00:50:49;6.55;;;3.40;;
66927;SDS011;59882;45.624;11.698;2023-04-25T00:53:21;6.28;;;3.72;;
66927;SDS011;59882;45.624;11.698;2023-04-25T00:55:47;6.35;;;3.65;;
66927;SDS011;59882;45.624;11.698;2023-04-25T00:58:15;6.07;;;3.60;;
66927;SDS011;59882;45.624;11.698;2023-04-25T01:00:42;7.30;;;3.50;;
66927;SDS011;59882;45.624;11.698;2023-04-25T01:03:08;7.85;;;3.72;;
66927;SDS011;59882;45.624;11.698;2023-04-25T01:05:35;5.30;;;3.60;;
66927;SDS011;59882;45.624;11.698;2023-04-25T01:08:00;5.60;;;3.27;;
66927;SDS011;59882;45.624;11.698;2023-04-25T01:10:26;5.15;;;3.15;;
66927;SDS011;59882;45.624;11.698;2023-04-25T01:12:52;5.93;;;3.40;;
66927;SDS011;59882;45.624;11.698;2023-04-25T01:15:18;8.60;;;3.47;;
66927;SDS011;59882;45.624;11.698;2023-04-25T01:17:43;11.47;;;3.07;;
66927;SDS011;59882;45.624;11.698;2023-04-25T01:20:09;9.05;;;3.80;;
66927;SDS011;59882;45.624;11.698;2023-04-25T01:22:37;7.53;;;3.95;;
66927;SDS011;59882;45.624;11.698;2023-04-25T01:25:03;5.90;;;3.35;;
66927;SDS011;59882;45.624;11.698;2023-04-25T01:27:29;6.37;;;3.33;;
66927;SDS011;59882;45.624;11.698;2023-04-25T01:29:55;5.80;;;3.42;;
66927;SDS011;59882;45.624;11.698;2023-04-25T01:32:22;6.05;;;3.33;;
66927;SDS011;59882;45.624;11.698;2023-04-25T01:34:48;6.60;;;3.78;;
66927;SDS011;59882;45.624;11.698;2023-04-25T01:37:14;10.27;;;4.82;;
66927;SDS011;59882;45.624;11.698;2023-04-25T01:39:41;7.13;;;4.83;;
66927;SDS011;59882;45.624;11.698;2023-04-25T01:42:07;7.30;;;5.05;;
66927;SDS011;59882;45.624;11.698;2023-04-25T01:44:33;7.18;;;5.22;;
66927;SDS011;59882;45.624;11.698;2023-04-25T01:46:59;6.77;;;4.60;;
66927;SDS011;59882;45.624;11.698;2023-04-25T01:49:24;6.40;;;3.38;;
66927;SDS011;59882;45.624;11.698;2023-04-25T01:51:50;7.17;;;3.13;;
66927;SDS011;59882;45.624;11.698;2023-04-25T01:54:16;5.77;;;3.07;;
66927;SDS011;59882;45.624;11.698;2023-04-25T01:56:43;6.50;;;2.83;;
66927;SDS011;59882;45.624;11.698;2023-04-25T01:59:09;5.43;;;2.50;;
66927;SDS011;59882;45.624;11.698;2023-04-25T02:01:34;4.63;;;2.43;;
66927;SDS011;59882;45.624;11.698;2023-04-25T02:04:00;7.70;;;2.30;;
66927;SDS011;59882;45.624;11.698;2023-04-25T02:06:26;6.80;;;2.20;;
66927;SDS011;59882;45.624;11.698;2023-04-25T02:08:51;5.72;;;2.28;;
66927;SDS011;59882;45.624;11.698;2023-04-25T02:11:17;4.53;;;2.07;;
66927;SDS011;59882;45.624;11.698;2023-04-25T02:13:42;4.97;;;2.07;;
66927;SDS011;59882;45.624;11.698;2023-04-25T02:16:08;6.38;;;2.53;;
66927;SDS011;59882;45.624;11.698;2023-04-25T02:18:33;6.43;;;2.37;;
66927;SDS011;59882;45.624;11.698;2023-04-25T02:21:01;4.82;;;2.30;;
66927;SDS011;59882;45.624;11.698;2023-04-25T02:23:28;5.50;;;2.20;;
66927;SDS011;59882;45.624;11.698;2023-04-25T02:25:54;5.80;;;2.35;;
66927;SDS011;59882;45.624;11.698;2023-04-25T02:28:21;5.50;;;1.83;;
66927;SDS011;59882;45.624;11.698;2023-04-25T02:30:46;4.35;;;1.70;;
66927;SDS011;59882;45.624;11.698;2023-04-25T02:33:12;4.23;;;1.77;;
66927;SDS011;59882;45.624;11.698;2023-04-25T02:35:37;3.83;;;1.75;;
66927;SDS011;59882;45.624;11.698;2023-04-25T02:38:03;4.53;;;1.60;;
66927;SDS011;59882;45.624;11.698;2023-04-25T02:40:28;5.23;;;1.70;;
66927;SDS011;59882;45.624;11.698;2023-04-25T02:42:54;4.05;;;1.70;;
66927;SDS011;59882;45.624;11.698;2023-04-25T02:45:21;3.50;;;1.17;;
66927;SDS011;59882;45.624;11.698;2023-04-25T02:47:46;2.90;;;1.10;;
66927;SDS011;59882;45.624;11.698;2023-04-25T02:50:12;3.30;;;1.50;;
66927;SDS011;59882;45.624;11.698;2023-04-25T02:52:37;3.23;;;0.97;;
66927;SDS011;59882;45.624;11.698;2023-04-25T02:55:03;4.30;;;1.40;;
66927;SDS011;59882;45.624;11.698;2023-04-25T02:57:29;5.10;;;1.60;;
66927;SDS011;59882;45.624;11.698;2023-04-25T02:59:55;7.25;;;1.58;;
66927;SDS011;59882;45.624;11.698;2023-04-25T03:02:20;4.40;;;1.67;;
66927;SDS011;59882;45.624;11.698;2023-04-25T03:04:46;4.70;;;1.70;;
66927;SDS011;59882;45.624;11.698;2023-04-25T03:07:11;4.55;;;1.65;;
66927;SDS011;59882;45.624;11.698;2023-04-25T03:09:37;4.80;;;1.77;;
66927;SDS011;59882;45.624;11.698;2023-04-25T03:12:03;3.97;;;1.88;;
66927;SDS011;59882;45.624;11.698;2023-04-25T03:14:28;6.27;;;1.70;;
66927;SDS011;59882;45.624;11.698;2023-04-25T03:16:54;3.97;;;1.85;;
66927;SDS011;59882;45.624;11.698;2023-04-25T03:19:20;5.13;;;2.00;;
66927;SDS011;59882;45.624;11.698;2023-04-25T03:21:45;5.33;;;2.10;;
66927;SDS011;59882;45.624;11.698;2023-04-25T03:24:11;3.93;;;1.80;;
66927;SDS011;59882;45.624;11.698;2023-04-25T03:26:37;5.20;;;1.60;;
66927;SDS011;59882;45.624;11.698;2023-04-25T03:29:02;3.60;;;1.20;;
66927;SDS011;59882;45.624;11.698;2023-04-25T03:31:28;3.75;;;1.38;;
66927;SDS011;59882;45.624;11.698;2023-04-25T03:33:54;3.70;;;1.40;;
66927;SDS011;59882;45.624;11.698;2023-04-25T03:36:19;4.68;;;1.38;;
66927;SDS011;59882;45.624;11.698;2023-04-25T03:38:45;3.87;;;1.27;;
66927;SDS011;59882;45.624;11.698;2023-04-25T03:41:11;4.00;;;1.40;;
66927;SDS011;59882;45.624;11.698;2023-04-25T03:43:37;3.80;;;1.50;;
66927;SDS011;59882;45.624;11.698;2023-04-25T03:46:02;4.88;;;1.60;;
66927;SDS011;59882;45.624;11.698;2023-04-25T03:48:28;4.07;;;1.50;;
66927;SDS011;59882;45.624;11.698;2023-04-25T03:50:54;3.70;;;1.57;;
66927;SDS011;59882;45.624;11.698;2023-04-25T03:53:20;3.47;;;1.60;;
66927;SDS011;59882;45.624;11.698;2023-04-25T03:55:45;4.35;;;1.90;;
66927;SDS011;59882;45.624;11.698;2023-04-25T03:58:11;4.20;;;1.27;;
66927;SDS011;59882;45.624;11.698;2023-04-25T04:00:36;3.42;;;1.60;;
66927;SDS011;59882;45.624;11.698;2023-04-25T04:03:02;5.13;;;1.50;;
66927;SDS011;59882;45.624;11.698;2023-04-25T04:05:28;3.28;;;1.30;;
66927;SDS011;59882;45.624;11.698;2023-04-25T04:07:54;6.10;;;1.60;;
66927;SDS011;59882;45.624;11.698;2023-04-25T04:10:20;5.55;;;1.60;;
66927;SDS011;59882;45.624;11.698;2023-04-25T04:12:46;4.70;;;1.70;;
66927;SDS011;59882;45.624;11.698;2023-04-25T04:15:12;7.23;;;2.10;;
66927;SDS011;59882;45.624;11.698;2023-04-25T04:17:38;5.38;;;1.55;;
66927;SDS011;59882;45.624;11.698;2023-04-25T04:20:04;3.72;;;1.60;;
66927;SDS011;59882;45.624;11.698;2023-04-25T04:22:31;4.53;;;2.03;;
66927;SDS011;59882;45.624;11.698;2023-04-25T04:24:57;4.72;;;2.30;;
66927;SDS011;59882;45.624;11.698;2023-04-25T04:27:22;4.40;;;1.90;;
66927;SDS011;59882;45.624;11.698;2023-04-25T04:29:48;5.20;;;2.07;;
66927;SDS011;59882;45.624;11.698;2023-04-25T04:32:15;5.45;;;2.30;;
66927;SDS011;59882;45.624;11.698;2023-04-25T04:34:42;6.95;;;2.83;;
66927;SDS011;59882;45.624;11.698;2023-04-25T04:37:08;5.30;;;2.30;;
66927;SDS011;59882;45.624;11.698;2023-04-25T04:39:34;6.05;;;2.38;;
66927;SDS011;59882;45.624;11.698;2023-04-25T04:42:00;4.25;;;1.90;;
66927;SDS011;59882;45.624;11.698;2023-04-25T04:44:30;4.53;;;1.85;;
66927;SDS011;59882;45.624;11.698;2023-04-25T04:46:59;5.03;;;2.30;;
66927;SDS011;59882;45.624;11.698;2023-04-25T04:49:25;5.53;;;2.15;;
66927;SDS011;59882;45.624;11.698;2023-04-25T04:51:51;6.15;;;2.33;;
66927;SDS011;59882;45.624;11.698;2023-04-25T04:54:17;7.17;;;2.10;;
66927;SDS011;59882;45.624;11.698;2023-04-25T04:56:43;5.85;;;2.47;;
66927;SDS011;59882;45.624;11.698;2023-04-25T04:59:08;7.90;;;2.73;;
66927;SDS011;59882;45.624;11.698;2023-04-25T05:01:34;9.67;;;3.00;;
66927;SDS011;59882;45.624;11.698;2023-04-25T05:04:03;5.50;;;2.17;;
66927;SDS011;59882;45.624;11.698;2023-04-25T05:06:29;8.55;;;4.45;;
66927;SDS011;59882;45.624;11.698;2023-04-25T05:08:56;9.33;;;7.87;;
66927;SDS011;59882;45.624;11.698;2023-04-25T05:11:23;9.07;;;7.15;;
66927;SDS011;59882;45.624;11.698;2023-04-25T05:13:49;9.15;;;5.13;;
66927;SDS011;59882;45.624;11.698;2023-04-25T05:16:16;8.13;;;4.13;;
66927;SDS011;59882;45.624;11.698;2023-04-25T05:18:42;7.97;;;3.13;;
66927;SDS011;59882;45.624;11.698;2023-04-25T05:21:07;5.95;;;2.42;;
66927;SDS011;59882;45.624;11.698;2023-04-25T05:23:33;6.33;;;2.87;;
66927;SDS011;59882;45.624;11.698;2023-04-25T05:25:58;9.77;;;3.20;;
66927;SDS011;59882;45.624;11.698;2023-04-25T05:28:24;6.67;;;2.63;;
66927;SDS011;59882;45.624;11.698;2023-04-25T05:30:50;7.00;;;3.08;;
66927;SDS011;59882;45.624;11.698;2023-04-25T05:33:16;6.23;;;2.47;;
66927;SDS011;59882;45.624;11.698;2023-04-25T05:35:41;6.95;;;3.00;;
66927;SDS011;59882;45.624;11.698;2023-04-25T05:38:07;7.27;;;3.03;;
66927;SDS011;59882;45.624;11.698;2023-04-25T05:40:33;6.97;;;2.75;;
66927;SDS011;59882;45.624;11.698;2023-04-25T05:42:59;7.33;;;3.03;;
66927;SDS011;59882;45.624;11.698;2023-04-25T05:45:24;6.35;;;2.78;;
66927;SDS011;59882;45.624;11.698;2023-04-25T05:47:50;6.67;;;3.10;;
66927;SDS011;59882;45.624;11.698;2023-04-25T05:50:15;6.88;;;3.40;;
66927;SDS011;59882;45.624;11.698;2023-04-25T05:52:41;7.47;;;3.40;;
66927;SDS011;59882;45.624;11.698;2023-04-25T05:55:07;5.70;;;2.87;;
66927;SDS011;59882;45.624;11.698;2023-04-25T05:57:33;9.63;;;3.05;;
66927;SDS011;59882;45.624;11.698;2023-04-25T05:59:58;5.90;;;2.63;;
66927;SDS011;59882;45.624;11.698;2023-04-25T06:02:24;6.20;;;2.43;;
66927;SDS011;59882;45.624;11.698;2023-04-25T06:04:50;6.80;;;2.97;;
66927;SDS011;59882;45.624;11.698;2023-04-25T06:07:16;6.03;;;2.85;;
66927;SDS011;59882;45.624;11.698;2023-04-25T06:09:43;4.32;;;2.30;;
66927;SDS011;59882;45.624;11.698;2023-04-25T06:12:09;6.37;;;2.80;;
66927;SDS011;59882;45.624;11.698;2023-04-25T06:14:34;6.28;;;2.05;;
66927;SDS011;59882;45.624;11.698;2023-04-25T06:17:00;3.97;;;2.10;;
66927;SDS011;59882;45.624;11.698;2023-04-25T06:19:31;5.25;;;2.10;;
66927;SDS011;59882;45.624;11.698;2023-04-25T06:21:57;3.63;;;1.80;;
66927;SDS011;59882;45.624;11.698;2023-04-25T06:24:23;3.47;;;1.42;;
66927;SDS011;59882;45.624;11.698;2023-04-25T06:26:49;4.97;;;2.03;;
66927;SDS011;59882;45.624;11.698;2023-04-25T06:29:15;4.93;;;1.60;;
66927;SDS011;59882;45.624;11.698;2023-04-25T06:31:40;4.90;;;1.50;;
66927;SDS011;59882;45.624;11.698;2023-04-25T06:34:06;6.17;;;1.87;;
66927;SDS011;59882;45.624;11.698;2023-04-25T06:36:31;5.00;;;1.45;;
66927;SDS011;59882;45.624;11.698;2023-04-25T06:38:57;6.30;;;1.80;;
66927;SDS011;59882;45.624;11.698;2023-04-25T06:41:22;4.07;;;1.20;;
66927;SDS011;59882;45.624;11.698;2023-04-25T06:43:48;4.37;;;1.50;;
66927;SDS011;59882;45.624;11.698;2023-04-25T06:46:14;4.57;;;1.57;;
66927;SDS011;59882;45.624;11.698;2023-04-25T06:48:39;4.60;;;0.90;;
66927;SDS011;59882;45.624;11.698;2023-04-25T06:51:05;3.10;;;0.63;;
66927;SDS011;59882;45.624;11.698;2023-04-25T06:53:30;3.40;;;0.87;;
66927;SDS011;59882;45.624;11.698;2023-04-25T06:55:56;2.93;;;0.97;;
66927;SDS011;59882;45.624;11.698;2023-04-25T06:58:22;5.10;;;1.20;;
66927;SDS011;59882;45.624;11.698;2023-04-25T07:00:47;4.07;;;1.30;;
66927;SDS011;59882;45.624;11.698;2023-04-25T07:03:13;3.27;;;1.27;;
66927;SDS011;59882;45.624;11.698;2023-04-25T07:05:39;4.70;;;1.30;;
66927;SDS011;59882;45.624;11.698;2023-04-25T07:08:04;5.87;;;1.30;;
66927;SDS011;59882;45.624;11.698;2023-04-25T07:10:30;4.38;;;1.10;;
66927;SDS011;59882;45.624;11.698;2023-04-25T07:12:55;5.20;;;2.10;;
66927;SDS011;59882;45.624;11.698;2023-04-25T07:15:21;4.80;;;1.77;;
66927;SDS011;59882;45.624;11.698;2023-04-25T07:17:46;4.53;;;1.60;;
66927;SDS011;59882;45.624;11.698;2023-04-25T07:20:12;5.80;;;1.80;;
66927;SDS011;59882;45.624;11.698;2023-04-25T07:22:38;3.50;;;1.45;;
66927;SDS011;59882;45.624;11.698;2023-04-25T07:25:04;4.53;;;1.60;;
66927;SDS011;59882;45.624;11.698;2023-04-25T07:27:30;4.28;;;1.40;;
66927;SDS011;59882;45.624;11.698;2023-04-25T07:29:56;4.17;;;1.43;;
66927;SDS011;59882;45.624;11.698;2023-04-25T07:32:22;5.05;;;1.25;;
66927;SDS011;59882;45.624;11.698;2023-04-25T07:34:48;5.47;;;1.65;;
66927;SDS011;59882;45.624;11.698;2023-04-25T07:37:13;7.33;;;4.30;;
66927;SDS011;59882;45.624;11.698;2023-04-25T07:39:39;8.60;;;3.75;;
66927;SDS011;59882;45.624;11.698;2023-04-25T07:42:05;5.85;;;2.17;;
66927;SDS011;59882;45.624;11.698;2023-04-25T07:44:33;4.20;;;1.75;;
66927;SDS011;59882;45.624;11.698;2023-04-25T07:47:06;6.70;;;3.50;;
66927;SDS011;59882;45.624;11.698;2023-04-25T07:49:33;8.70;;;1.80;;
66927;SDS011;59882;45.624;11.698;2023-04-25T07:52:00;7.18;;;2.40;;
66927;SDS011;59882;45.624;11.698;2023-04-25T07:54:26;5.18;;;1.80;;
66927;SDS011;59882;45.624;11.698;2023-04-25T07:56:52;6.13;;;2.13;;
66927;SDS011;59882;45.624;11.698;2023-04-25T07:59:17;6.33;;;2.47;;
66927;SDS011;59882;45.624;11.698;2023-04-25T08:01:43;5.53;;;1.90;;
66927;SDS011;59882;45.624;11.698;2023-04-25T08:04:09;6.47;;;3.07;;
66927;SDS011;59882;45.624;11.698;2023-04-25T08:06:34;6.60;;;3.50;;
66927;SDS011;59882;45.624;11.698;2023-04-25T08:09:01;4.72;;;2.60;;
66927;SDS011;59882;45.624;11.698;2023-04-25T08:11:27;6.00;;;3.10;;
66927;SDS011;59882;45.624;11.698;2023-04-25T08:13:53;9.93;;;3.60;;
66927;SDS011;59882;45.624;11.698;2023-04-25T08:16:19;6.23;;;3.10;;
66927;SDS011;59882;45.624;11.698;2023-04-25T08:18:44;9.52;;;3.63;;
66927;SDS011;59882;45.624;11.698;2023-04-25T08:21:10;6.97;;;2.93;;
66927;SDS011;59882;45.624;11.698;2023-04-25T08:23:37;5.50;;;2.47;;
66927;SDS011;59882;45.624;11.698;2023-04-25T08:26:02;6.38;;;2.88;;
66927;SDS011;59882;45.624;11.698;2023-04-25T08:28:29;5.77;;;2.13;;
66927;SDS011;59882;45.624;11.698;2023-04-25T08:30:55;5.68;;;2.60;;
66927;SDS011;59882;45.624;11.698;2023-04-25T08:33:21;6.57;;;3.40;;
66927;SDS011;59882;45.624;11.698;2023-04-25T08:35:46;8.48;;;3.67;;
66927;SDS011;59882;45.624;11.698;2023-04-25T08:38:12;5.77;;;2.70;;
66927;SDS011;59882;45.624;11.698;2023-04-25T08:40:38;8.52;;;2.78;;
66927;SDS011;59882;45.624;11.698;2023-04-25T08:43:05;4.37;;;2.20;;
66927;SDS011;59882;45.624;11.698;2023-04-25T08:45:36;4.72;;;2.10;;
66927;SDS011;59882;45.624;11.698;2023-04-25T08:48:06;5.55;;;2.15;;
66927;SDS011;59882;45.624;11.698;2023-04-25T08:50:38;4.90;;;1.98;;
66927;SDS011;59882;45.624;11.698;2023-04-25T08:53:05;6.00;;;1.90;;
66927;SDS011;59882;45.624;11.698;2023-04-25T08:55:36;6.30;;;2.70;;
66927;SDS011;59882;45.624;11.698;2023-04-25T08:58:05;6.07;;;2.58;;
66927;SDS011;59882;45.624;11.698;2023-04-25T09:00:31;6.22;;;2.80;;
66927;SDS011;59882;45.624;11.698;2023-04-25T09:02:58;4.47;;;2.50;;
66927;SDS011;59882;45.624;11.698;2023-04-25T09:05:24;5.95;;;2.83;;
66927;SDS011;59882;45.624;11.698;2023-04-25T09:07:50;6.07;;;2.47;;
66927;SDS011;59882;45.624;11.698;2023-04-25T09:10:16;9.90;;;3.73;;
66927;SDS011;59882;45.624;11.698;2023-04-25T09:12:41;5.15;;;2.50;;
66927;SDS011;59882;45.624;11.698;2023-04-25T09:15:11;5.13;;;2.13;;
66927;SDS011;59882;45.624;11.698;2023-04-25T09:17:37;4.90;;;2.05;;
66927;SDS011;59882;45.624;11.698;2023-04-25T09:20:10;2.50;;;0.55;;
66927;SDS011;59882;45.624;11.698;2023-04-25T09:22:37;2.92;;;1.23;;
66927;SDS011;59882;45.624;11.698;2023-04-25T09:25:12;3.90;;;0.90;;
66927;SDS011;59882;45.624;11.698;2023-04-25T09:27:50;3.67;;;1.48;;
66927;SDS011;59882;45.624;11.698;2023-04-25T09:30:17;3.80;;;1.55;;
66927;SDS011;59882;45.624;11.698;2023-04-25T09:32:43;3.13;;;1.10;;
66927;SDS011;59882;45.624;11.698;2023-04-25T09:35:09;3.77;;;1.33;;
66927;SDS011;59882;45.624;11.698;2023-04-25T09:37:36;3.15;;;1.13;;
66927;SDS011;59882;45.624;11.698;2023-04-25T09:40:04;3.33;;;1.23;;
66927;SDS011;59882;45.624;11.698;2023-04-25T09:42:32;3.67;;;1.60;;
66927;SDS011;59882;45.624;11.698;2023-04-25T09:44:59;3.97;;;1.50;;
66927;SDS011;59882;45.624;11.698;2023-04-25T09:47:28;5.40;;;1.63;;
66927;SDS011;59882;45.624;11.698;2023-04-25T09:49:54;2.57;;;0.73;;
66927;SDS011;59882;45.624;11.698;2023-04-25T09:52:24;2.40;;;0.70;;
66927;SDS011;59882;45.624;11.698;2023-04-25T09:54:50;3.88;;;0.90;;
66927;SDS011;59882;45.624;11.698;2023-04-25T09:57:20;2.67;;;0.77;;
66927;SDS011;59882;45.624;11.698;2023-04-25T09:59:47;2.37;;;0.50;;
66927;SDS011;59882;45.624;11.698;2023-04-25T10:02:15;5.03;;;0.75;;
66927;SDS011;59882;45.624;11.698;2023-04-25T10:04:51;3.45;;;1.05;;
66927;SDS011;59882;45.624;11.698;2023-04-25T10:07:20;3.45;;;0.90;;
66927;SDS011;59882;45.624;11.698;2023-04-25T10:09:50;3.80;;;1.10;;
66927;SDS011;59882;45.624;11.698;2023-04-25T10:12:27;3.70;;;1.03;;
66927;SDS011;59882;45.624;11.698;2023-04-25T10:14:54;3.53;;;1.20;;
66927;SDS011;59882;45.624;11.698;2023-04-25T10:17:20;2.20;;;0.70;;
66927;SDS011;59882;45.624;11.698;2023-04-25T10:19:47;2.53;;;0.93;;
66927;SDS011;59882;45.624;11.698;2023-04-25T10:22:16;2.87;;;0.80;;
66927;SDS011;59882;45.624;11.698;2023-04-25T10:24:45;3.67;;;1.00;;
66927;SDS011;59882;45.624;11.698;2023-04-25T10:27:11;2.88;;;0.82;;
66927;SDS011;59882;45.624;11.698;2023-04-25T10:29:38;2.88;;;0.93;;
66927;SDS011;59882;45.624;11.698;2023-04-25T10:32:03;3.93;;;1.13;;
66927;SDS011;59882;45.624;11.698;2023-04-25T10:34:42;5.07;;;0.80;;
66927;SDS011;59882;45.624;11.698;2023-04-25T10:37:11;4.30;;;1.20;;
66927;SDS011;59882;45.624;11.698;2023-04-25T10:39:38;2.73;;;0.70;;
66927;SDS011;59882;45.624;11.698;2023-04-25T10:42:06;4.15;;;0.90;;
66927;SDS011;59882;45.624;11.698;2023-04-25T10:44:33;2.10;;;0.60;;
66927;SDS011;59882;45.624;11.698;2023-04-25T10:47:00;2.72;;;0.88;;
66927;SDS011;59882;45.624;11.698;2023-04-25T10:49:42;3.03;;;0.95;;
66927;SDS011;59882;45.624;11.698;2023-04-25T10:54:42;8.70;;;1.00;;
66927;SDS011;59882;45.624;11.698;2023-04-25T11:00:17;3.08;;;0.95;;
66927;SDS011;59882;45.624;11.698;2023-04-25T11:05:55;4.07;;;0.87;;
66927;SDS011;59882;45.624;11.698;2023-04-25T11:08:02;2.40;;;0.63;;
66927;SDS011;59882;45.624;11.698;2023-04-25T11:10:32;3.75;;;0.80;;
66927;SDS011;59882;45.624;11.698;2023-04-25T11:13:00;2.50;;;0.65;;
66927;SDS011;59882;45.624;11.698;2023-04-25T11:15:26;2.47;;;0.75;;
66927;SDS011;59882;45.624;11.698;2023-04-25T11:17:52;2.70;;;0.60;;
66927;SDS011;59882;45.624;11.698;2023-04-25T11:20:18;3.55;;;0.80;;
66927;SDS011;59882;45.624;11.698;2023-04-25T11:22:44;3.80;;;1.10;;
66927;SDS011;59882;45.624;11.698;2023-04-25T11:25:12;3.00;;;0.63;;
66927;SDS011;59882;45.624;11.698;2023-04-25T11:27:58;2.83;;;1.00;;
66927;SDS011;59882;45.624;11.698;2023-04-25T11:30:26;3.28;;;0.85;;
66927;SDS011;59882;45.624;11.698;2023-04-25T11:32:52;2.55;;;0.98;;
66927;SDS011;59882;45.624;11.698;2023-04-25T11:35:18;3.50;;;1.00;;
66927;SDS011;59882;45.624;11.698;2023-04-25T11:37:45;3.40;;;0.90;;
66927;SDS011;59882;45.624;11.698;2023-04-25T11:40:11;2.60;;;0.80;;
66927;SDS011;59882;45.624;11.698;2023-04-25T11:42:37;2.90;;;0.90;;
66927;SDS011;59882;45.624;11.698;2023-04-25T11:45:12;3.42;;;0.90;;
66927;SDS011;59882;45.624;11.698;2023-04-25T11:47:38;2.35;;;0.98;;
66927;SDS011;59882;45.624;11.698;2023-04-25T11:50:05;2.60;;;0.73;;
66927;SDS011;59882;45.624;11.698;2023-04-25T11:52:42;2.50;;;0.80;;
66927;SDS011;59882;45.624;11.698;2023-04-25T11:55:17;2.80;;;1.00;;
66927;SDS011;59882;45.624;11.698;2023-04-25T11:57:45;3.20;;;1.30;;
66927;SDS011;59882;45.624;11.698;2023-04-25T12:00:15;3.38;;;1.00;;
66927;SDS011;59882;45.624;11.698;2023-04-25T12:02:46;4.20;;;0.90;;
66927;SDS011;59882;45.624;11.698;2023-04-25T12:05:13;3.00;;;0.90;;
66927;SDS011;59882;45.624;11.698;2023-04-25T12:07:41;4.38;;;1.10;;
66927;SDS011;59882;45.624;11.698;2023-04-25T12:10:08;2.92;;;0.80;;
66927;SDS011;59882;45.624;11.698;2023-04-25T12:12:41;2.25;;;0.70;;
66927;SDS011;59882;45.624;11.698;2023-04-25T12:15:08;3.28;;;0.77;;
66927;SDS011;59882;45.624;11.698;2023-04-25T12:17:48;2.50;;;0.70;;
66927;SDS011;59882;45.624;11.698;2023-04-25T12:20:19;3.60;;;0.50;;
66927;SDS011;59882;45.624;11.698;2023-04-25T12:22:48;3.92;;;0.70;;
66927;SDS011;59882;45.624;11.698;2023-04-25T12:25:37;2.10;;;0.63;;
66927;SDS011;59882;45.624;11.698;2023-04-25T12:28:13;2.38;;;0.68;;
66927;SDS011;59882;45.624;11.698;2023-04-25T12:30:59;2.40;;;0.70;;
66927;SDS011;59882;45.624;11.698;2023-04-25T12:33:30;2.70;;;0.80;;
66927;SDS011;59882;45.624;11.698;2023-04-25T12:35:57;3.03;;;0.70;;
66927;SDS011;59882;45.624;11.698;2023-04-25T12:38:24;2.60;;;0.68;;
66927;SDS011;59882;45.624;11.698;2023-04-25T12:40:58;2.60;;;0.68;;
66927;SDS011;59882;45.624;11.698;2023-04-25T12:43:24;2.70;;;0.70;;
66927;SDS011;59882;45.624;11.698;2023-04-25T12:45:50;3.22;;;0.50;;
66927;SDS011;59882;45.624;11.698;2023-04-25T12:48:18;2.00;;;0.50;;
66927;SDS011;59882;45.624;11.698;2023-04-25T12:50:44;2.90;;;0.83;;
66927;SDS011;59882;45.624;11.698;2023-04-25T12:53:13;2.40;;;0.65;;
66927;SDS011;59882;45.624;11.698;2023-04-25T12:55:40;2.45;;;0.52;;
66927;SDS011;59882;45.624;11.698;2023-04-25T12:58:06;2.55;;;0.63;;
66927;SDS011;59882;45.624;11.698;2023-04-25T13:00:32;4.85;;;0.40;;
66927;SDS011;59882;45.624;11.698;2023-04-25T13:02:58;2.30;;;0.70;;
66927;SDS011;59882;45.624;11.698;2023-04-25T13:05:24;3.53;;;0.50;;
66927;SDS011;59882;45.624;11.698;2023-04-25T13:07:50;2.33;;;0.63;;
66927;SDS011;59882;45.624;11.698;2023-04-25T13:10:16;2.17;;;0.50;;
66927;SDS011;59882;45.624;11.698;2023-04-25T13:12:43;2.63;;;0.70;;
66927;SDS011;59882;45.624;11.698;2023-04-25T13:15:08;3.23;;;0.80;;
66927;SDS011;59882;45.624;11.698;2023-04-25T13:17:36;3.75;;;0.88;;
66927;SDS011;59882;45.624;11.698;2023-04-25T13:20:03;2.72;;;0.95;;
66927;SDS011;59882;45.624;11.698;2023-04-25T13:22:33;3.97;;;1.27;;
66927;SDS011;59882;45.624;11.698;2023-04-25T13:25:02;3.25;;;0.82;;
66927;SDS011;59882;45.624;11.698;2023-04-25T13:27:28;2.30;;;0.60;;
66927;SDS011;59882;45.624;11.698;2023-04-25T13:29:53;3.20;;;0.95;;
66927;SDS011;59882;45.624;11.698;2023-04-25T13:32:19;3.53;;;1.10;;
66927;SDS011;59882;45.624;11.698;2023-04-25T13:34:45;4.20;;;1.30;;
66927;SDS011;59882;45.624;11.698;2023-04-25T13:37:10;5.67;;;1.23;;
66927;SDS011;59882;45.624;11.698;2023-04-25T13:39:36;3.42;;;1.33;;
66927;SDS011;59882;45.624;11.698;2023-04-25T13:42:02;5.67;;;1.17;;
66927;SDS011;59882;45.624;11.698;2023-04-25T13:44:28;3.53;;;1.27;;
66927;SDS011;59882;45.624;11.698;2023-04-25T13:46:53;5.13;;;2.33;;
66927;SDS011;59882;45.624;11.698;2023-04-25T13:49:19;5.43;;;2.25;;
66927;SDS011;59882;45.624;11.698;2023-04-25T13:51:45;5.40;;;2.73;;
66927;SDS011;59882;45.624;11.698;2023-04-25T13:54:10;6.40;;;2.25;;
66927;SDS011;59882;45.624;11.698;2023-04-25T13:56:36;6.03;;;1.70;;
66927;SDS011;59882;45.624;11.698;2023-04-25T13:59:01;4.43;;;1.63;;
66927;SDS011;59882;45.624;11.698;2023-04-25T14:01:27;4.45;;;1.65;;
66927;SDS011;59882;45.624;11.698;2023-04-25T14:03:55;8.40;;;3.22;;
66927;SDS011;59882;45.624;11.698;2023-04-25T14:06:21;8.73;;;3.60;;
66927;SDS011;59882;45.624;11.698;2023-04-25T14:08:49;21.30;;;10.73;;
66927;SDS011;59882;45.624;11.698;2023-04-25T14:11:15;13.57;;;8.05;;
66927;SDS011;59882;45.624;11.698;2023-04-25T14:13:43;10.98;;;6.53;;
66927;SDS011;59882;45.624;11.698;2023-04-25T14:16:09;6.25;;;3.47;;
66927;SDS011;59882;45.624;11.698;2023-04-25T14:18:35;8.33;;;2.60;;
66927;SDS011;59882;45.624;11.698;2023-04-25T14:21:00;6.80;;;3.70;;
66927;SDS011;59882;45.624;11.698;2023-04-25T14:23:26;5.73;;;3.10;;
66927;SDS011;59882;45.624;11.698;2023-04-25T14:25:51;6.43;;;3.00;;
66927;SDS011;59882;45.624;11.698;2023-04-25T14:28:17;5.50;;;2.47;;
66927;SDS011;59882;45.624;11.698;2023-04-25T14:30:43;4.60;;;2.07;;
66927;SDS011;59882;45.624;11.698;2023-04-25T14:33:08;5.22;;;1.45;;
66927;SDS011;59882;45.624;11.698;2023-04-25T14:35:35;3.90;;;1.83;;
66927;SDS011;59882;45.624;11.698;2023-04-25T14:38:00;8.10;;;4.18;;
66927;SDS011;59882;45.624;11.698;2023-04-25T14:40:26;12.80;;;6.37;;